This is the latest recevied weather packets stored in our database for station/object IU2PLZ-12. If no packets are shown the sender has not sent any weather packets the latest 10 day(s).
| Time | Temp. | Humidity | Pressure | Rain* | Wind** | Luminosity | Snow |
|---|---|---|---|---|---|---|---|
| 1777918674 | 21.11° C | 34% | 997.4 hPa | - | - | - | - |
| 1777917774 | 21.67° C | 34% | 997.4 hPa | - | - | - | - |
| 1777916874 | 22.78° C | 32% | 997.5 hPa | - | - | - | - |
| 1777915974 | 22.78° C | 31% | 997.4 hPa | - | - | - | - |
| 1777915074 | 23.33° C | 31% | 997.4 hPa | - | - | - | - |
| 1777914173 | 23.33° C | 30% | 997.5 hPa | - | - | - | - |
| 1777913273 | 23.89° C | 29% | 997.5 hPa | - | - | - | - |
| 1777912372 | 24.44° C | 29% | 997.5 hPa | - | - | - | - |
| 1777911472 | 25° C | 28% | 997.6 hPa | - | - | - | - |
| 1777910576 | 25.56° C | 27% | 997.7 hPa | - | - | - | - |
| 1777910572 | 25.56° C | 27% | 997.7 hPa | - | - | - | - |
| 1777909671 | 26.11° C | 26% | 997.7 hPa | - | - | - | - |
| 1777908771 | 29.44° C | 24% | 997.5 hPa | - | - | - | - |
| 1777907871 | 26.11° C | 26% | 997.9 hPa | - | - | - | - |
| 1777906971 | 25° C | 27% | 998 hPa | - | - | - | - |
| 1777906069 | 25.56° C | 27% | 998.3 hPa | - | - | - | - |
| 1777905169 | 26.11° C | 27% | 998.2 hPa | - | - | - | - |
| 1777904269 | 26.11° C | 26% | 998.3 hPa | - | - | - | - |
| 1777903368 | 26.11° C | 27% | 998.4 hPa | - | - | - | - |
| 1777902468 | 27.22° C | 26% | 998.6 hPa | - | - | - | - |
| 1777901568 | 27.78° C | 26% | 998.8 hPa | - | - | - | - |
| 1777900668 | 26.11° C | 27% | 999 hPa | - | - | - | - |
| 1777899768 | 26.11° C | 27% | 998.9 hPa | - | - | - | - |
| 1777898867 | 25.56° C | 27% | 999 hPa | - | - | - | - |
| 1777897967 | 26.11° C | 26% | 999.1 hPa | - | - | - | - |
* Rain since midnight (hover to see other rain measurements)
** Current wind speed in m/s (hover to see current wind gust speed)